sensor_id;sensor_type;location;lat;lon;timestamp;temperature;humidity
11762;DHT22;5938;47.098;15.474;2023-07-16T00:02:06;19.00;99.90
11762;DHT22;5938;47.098;15.474;2023-07-16T00:06:11;19.00;99.90
11762;DHT22;5938;47.098;15.474;2023-07-16T00:10:15;18.90;99.90
11762;DHT22;5938;47.098;15.474;2023-07-16T00:14:18;18.90;99.90
11762;DHT22;5938;47.098;15.474;2023-07-16T00:18:23;18.90;99.90
11762;DHT22;5938;47.098;15.474;2023-07-16T00:22:26;18.80;99.90
11762;DHT22;5938;47.098;15.474;2023-07-16T00:26:30;18.80;99.90
11762;DHT22;5938;47.098;15.474;2023-07-16T00:30:34;18.70;99.90
11762;DHT22;5938;47.098;15.474;2023-07-16T00:34:38;18.70;99.90
11762;DHT22;5938;47.098;15.474;2023-07-16T00:38:42;18.60;99.90
11762;DHT22;5938;47.098;15.474;2023-07-16T00:42:45;18.60;99.90
11762;DHT22;5938;47.098;15.474;2023-07-16T00:46:48;18.60;99.90
11762;DHT22;5938;47.098;15.474;2023-07-16T00:50:54;18.50;99.90
11762;DHT22;5938;47.098;15.474;2023-07-16T00:54:57;18.60;99.90
11762;DHT22;5938;47.098;15.474;2023-07-16T00:59:01;18.60;99.90
11762;DHT22;5938;47.098;15.474;2023-07-16T01:03:07;18.60;99.90
11762;DHT22;5938;47.098;15.474;2023-07-16T01:07:14;18.60;99.90
11762;DHT22;5938;47.098;15.474;2023-07-16T01:11:18;18.60;99.90
11762;DHT22;5938;47.098;15.474;2023-07-16T01:15:21;18.50;99.90
11762;DHT22;5938;47.098;15.474;2023-07-16T01:19:25;18.40;99.90
11762;DHT22;5938;47.098;15.474;2023-07-16T01:23:44;18.40;99.90
11762;DHT22;5938;47.098;15.474;2023-07-16T01:28:09;18.40;99.90
11762;DHT22;5938;47.098;15.474;2023-07-16T01:32:22;18.30;99.90
11762;DHT22;5938;47.098;15.474;2023-07-16T01:36:26;18.20;99.90
11762;DHT22;5938;47.098;15.474;2023-07-16T01:40:30;18.20;99.90
11762;DHT22;5938;47.098;15.474;2023-07-16T01:44:33;18.10;99.90
11762;DHT22;5938;47.098;15.474;2023-07-16T01:48:39;18.10;99.90
11762;DHT22;5938;47.098;15.474;2023-07-16T01:52:42;18.00;99.90
11762;DHT22;5938;47.098;15.474;2023-07-16T01:56:46;18.10;99.90
11762;DHT22;5938;47.098;15.474;2023-07-16T02:00:50;18.10;99.90
11762;DHT22;5938;47.098;15.474;2023-07-16T02:04:55;18.00;99.90
11762;DHT22;5938;47.098;15.474;2023-07-16T02:08:58;18.00;99.90
11762;DHT22;5938;47.098;15.474;2023-07-16T02:13:01;17.90;99.90
11762;DHT22;5938;47.098;15.474;2023-07-16T02:17:06;17.90;99.90
11762;DHT22;5938;47.098;15.474;2023-07-16T02:21:12;17.90;99.90
11762;DHT22;5938;47.098;15.474;2023-07-16T02:25:15;17.90;99.90
11762;DHT22;5938;47.098;15.474;2023-07-16T02:29:19;17.80;99.90
11762;DHT22;5938;47.098;15.474;2023-07-16T02:33:22;17.80;99.90
11762;DHT22;5938;47.098;15.474;2023-07-16T02:37:27;17.80;99.90
11762;DHT22;5938;47.098;15.474;2023-07-16T02:41:33;17.70;99.90
11762;DHT22;5938;47.098;15.474;2023-07-16T02:45:36;17.70;99.90
11762;DHT22;5938;47.098;15.474;2023-07-16T02:49:45;17.60;99.90
11762;DHT22;5938;47.098;15.474;2023-07-16T02:53:50;17.60;99.90
11762;DHT22;5938;47.098;15.474;2023-07-16T02:57:55;17.60;99.90
11762;DHT22;5938;47.098;15.474;2023-07-16T03:01:59;17.50;99.90
11762;DHT22;5938;47.098;15.474;2023-07-16T03:06:02;17.50;99.90
11762;DHT22;5938;47.098;15.474;2023-07-16T03:10:08;17.40;99.90
11762;DHT22;5938;47.098;15.474;2023-07-16T03:14:11;17.40;99.90
11762;DHT22;5938;47.098;15.474;2023-07-16T03:18:17;17.30;99.90
11762;DHT22;5938;47.098;15.474;2023-07-16T03:22:21;17.30;99.90
11762;DHT22;5938;47.098;15.474;2023-07-16T03:26:25;17.30;99.90
11762;DHT22;5938;47.098;15.474;2023-07-16T03:30:30;17.30;99.90
11762;DHT22;5938;47.098;15.474;2023-07-16T03:34:34;17.30;99.90
11762;DHT22;5938;47.098;15.474;2023-07-16T03:38:38;17.30;99.90
11762;DHT22;5938;47.098;15.474;2023-07-16T03:42:43;17.40;99.90
11762;DHT22;5938;47.098;15.474;2023-07-16T03:46:46;17.30;99.90
11762;DHT22;5938;47.098;15.474;2023-07-16T03:50:49;17.30;99.90
11762;DHT22;5938;47.098;15.474;2023-07-16T03:54:53;17.40;99.90
11762;DHT22;5938;47.098;15.474;2023-07-16T03:58:58;17.40;99.90
11762;DHT22;5938;47.098;15.474;2023-07-16T04:03:01;17.40;99.90
11762;DHT22;5938;47.098;15.474;2023-07-16T04:07:05;17.40;99.90
11762;DHT22;5938;47.098;15.474;2023-07-16T04:11:08;17.50;99.90
11762;DHT22;5938;47.098;15.474;2023-07-16T04:15:13;17.50;99.90
11762;DHT22;5938;47.098;15.474;2023-07-16T04:19:20;17.50;99.90
11762;DHT22;5938;47.098;15.474;2023-07-16T04:23:23;17.60;99.90
11762;DHT22;5938;47.098;15.474;2023-07-16T04:27:26;17.70;99.90
11762;DHT22;5938;47.098;15.474;2023-07-16T04:31:31;17.70;99.90
11762;DHT22;5938;47.098;15.474;2023-07-16T04:35:35;17.80;99.90
11762;DHT22;5938;47.098;15.474;2023-07-16T04:39:39;17.90;99.90
11762;DHT22;5938;47.098;15.474;2023-07-16T04:43:44;18.00;99.90
11762;DHT22;5938;47.098;15.474;2023-07-16T04:47:48;18.00;99.90
11762;DHT22;5938;47.098;15.474;2023-07-16T04:51:52;18.10;99.90
11762;DHT22;5938;47.098;15.474;2023-07-16T04:55:55;18.20;99.90
11762;DHT22;5938;47.098;15.474;2023-07-16T04:59:59;18.30;99.90
11762;DHT22;5938;47.098;15.474;2023-07-16T05:04:04;18.50;99.90
11762;DHT22;5938;47.098;15.474;2023-07-16T05:08:10;18.60;99.90
11762;DHT22;5938;47.098;15.474;2023-07-16T05:12:13;18.70;99.90
11762;DHT22;5938;47.098;15.474;2023-07-16T05:16:17;18.70;99.90
11762;DHT22;5938;47.098;15.474;2023-07-16T05:20:22;18.80;99.90
11762;DHT22;5938;47.098;15.474;2023-07-16T05:24:26;18.90;99.90
11762;DHT22;5938;47.098;15.474;2023-07-16T05:28:30;19.10;99.90
11762;DHT22;5938;47.098;15.474;2023-07-16T05:32:35;19.20;99.90
11762;DHT22;5938;47.098;15.474;2023-07-16T05:36:43;19.40;99.90
11762;DHT22;5938;47.098;15.474;2023-07-16T05:40:51;19.60;99.90
11762;DHT22;5938;47.098;15.474;2023-07-16T05:45:00;19.90;99.90
11762;DHT22;5938;47.098;15.474;2023-07-16T05:49:06;20.10;99.90
11762;DHT22;5938;47.098;15.474;2023-07-16T05:53:15;20.20;99.90
11762;DHT22;5938;47.098;15.474;2023-07-16T05:57:19;20.30;99.90
11762;DHT22;5938;47.098;15.474;2023-07-16T06:01:24;20.50;99.90
11762;DHT22;5938;47.098;15.474;2023-07-16T06:05:28;20.70;99.90
11762;DHT22;5938;47.098;15.474;2023-07-16T06:09:36;20.80;99.90
11762;DHT22;5938;47.098;15.474;2023-07-16T06:13:39;21.00;99.90
11762;DHT22;5938;47.098;15.474;2023-07-16T06:17:43;21.20;99.90
11762;DHT22;5938;47.098;15.474;2023-07-16T06:21:46;21.40;99.90
11762;DHT22;5938;47.098;15.474;2023-07-16T06:25:55;21.60;99.90
11762;DHT22;5938;47.098;15.474;2023-07-16T06:29:59;21.80;99.90
11762;DHT22;5938;47.098;15.474;2023-07-16T06:34:02;21.90;99.90
11762;DHT22;5938;47.098;15.474;2023-07-16T06:38:05;22.10;99.90
11762;DHT22;5938;47.098;15.474;2023-07-16T06:42:10;22.30;99.90
11762;DHT22;5938;47.098;15.474;2023-07-16T06:46:13;22.50;99.90
11762;DHT22;5938;47.098;15.474;2023-07-16T06:50:17;22.80;99.90
11762;DHT22;5938;47.098;15.474;2023-07-16T06:54:21;23.00;99.90
11762;DHT22;5938;47.098;15.474;2023-07-16T06:58:33;23.20;99.90
11762;DHT22;5938;47.098;15.474;2023-07-16T07:02:36;23.50;99.90
11762;DHT22;5938;47.098;15.474;2023-07-16T07:06:40;23.80;99.90
11762;DHT22;5938;47.098;15.474;2023-07-16T07:10:43;24.10;99.90
11762;DHT22;5938;47.098;15.474;2023-07-16T07:14:48;24.30;99.90
11762;DHT22;5938;47.098;15.474;2023-07-16T07:18:51;24.50;99.90
11762;DHT22;5938;47.098;15.474;2023-07-16T07:22:54;24.70;99.90
11762;DHT22;5938;47.098;15.474;2023-07-16T07:26:58;24.80;99.90
11762;DHT22;5938;47.098;15.474;2023-07-16T07:31:02;24.90;99.90
11762;DHT22;5938;47.098;15.474;2023-07-16T07:35:06;25.30;99.90
11762;DHT22;5938;47.098;15.474;2023-07-16T07:39:09;25.70;99.90
11762;DHT22;5938;47.098;15.474;2023-07-16T07:43:12;26.10;97.80
11762;DHT22;5938;47.098;15.474;2023-07-16T07:47:18;26.40;97.90
11762;DHT22;5938;47.098;15.474;2023-07-16T07:51:21;26.60;99.00
11762;DHT22;5938;47.098;15.474;2023-07-16T07:55:24;26.70;98.60
11762;DHT22;5938;47.098;15.474;2023-07-16T07:59:30;26.70;95.30
11762;DHT22;5938;47.098;15.474;2023-07-16T08:03:35;26.80;95.00
11762;DHT22;5938;47.098;15.474;2023-07-16T08:07:41;26.80;97.40
11762;DHT22;5938;47.098;15.474;2023-07-16T08:17:23;27.40;93.80
11762;DHT22;5938;47.098;15.474;2023-07-16T08:21:28;27.70;93.40
11762;DHT22;5938;47.098;15.474;2023-07-16T08:25:33;28.00;93.30
11762;DHT22;5938;47.098;15.474;2023-07-16T08:29:36;27.90;93.20
11762;DHT22;5938;47.098;15.474;2023-07-16T08:33:40;28.40;94.10
11762;DHT22;5938;47.098;15.474;2023-07-16T08:37:51;28.50;94.10
11762;DHT22;5938;47.098;15.474;2023-07-16T08:41:57;29.00;92.80
11762;DHT22;5938;47.098;15.474;2023-07-16T08:46:06;29.00;92.90
11762;DHT22;5938;47.098;15.474;2023-07-16T08:50:18;29.60;91.20
11762;DHT22;5938;47.098;15.474;2023-07-16T08:54:24;30.50;91.60
11762;DHT22;5938;47.098;15.474;2023-07-16T08:58:30;33.00;89.80
11762;DHT22;5938;47.098;15.474;2023-07-16T09:02:34;35.30;83.20
11762;DHT22;5938;47.098;15.474;2023-07-16T09:06:49;37.00;76.30
11762;DHT22;5938;47.098;15.474;2023-07-16T09:11:32;38.50;73.00
11762;DHT22;5938;47.098;15.474;2023-07-16T09:16:07;39.60;71.10
11762;DHT22;5938;47.098;15.474;2023-07-16T09:20:54;39.30;69.40
11762;DHT22;5938;47.098;15.474;2023-07-16T09:33:48;38.80;69.00
11762;DHT22;5938;47.098;15.474;2023-07-16T10:25:37;41.00;60.10
11762;DHT22;5938;47.098;15.474;2023-07-16T10:34:40;41.70;58.40
11762;DHT22;5938;47.098;15.474;2023-07-16T11:11:41;42.20;60.90
11762;DHT22;5938;47.098;15.474;2023-07-16T11:20:35;41.20;60.60
11762;DHT22;5938;47.098;15.474;2023-07-16T11:25:00;42.20;57.90
11762;DHT22;5938;47.098;15.474;2023-07-16T11:29:24;43.30;59.20
11762;DHT22;5938;47.098;15.474;2023-07-16T11:33:49;42.60;56.00
11762;DHT22;5938;47.098;15.474;2023-07-16T11:38:04;41.70;58.50
11762;DHT22;5938;47.098;15.474;2023-07-16T11:42:10;42.20;58.80
11762;DHT22;5938;47.098;15.474;2023-07-16T12:03:33;41.40;59.30
11762;DHT22;5938;47.098;15.474;2023-07-16T12:29:12;40.40;61.00
11762;DHT22;5938;47.098;15.474;2023-07-16T12:33:16;42.90;55.40
11762;DHT22;5938;47.098;15.474;2023-07-16T12:37:19;44.30;54.40
11762;DHT22;5938;47.098;15.474;2023-07-16T12:41:23;44.70;56.40
11762;DHT22;5938;47.098;15.474;2023-07-16T12:45:34;44.80;52.60
11762;DHT22;5938;47.098;15.474;2023-07-16T12:49:39;41.40;60.10
11762;DHT22;5938;47.098;15.474;2023-07-16T12:53:44;39.20;63.50
11762;DHT22;5938;47.098;15.474;2023-07-16T13:20:55;44.80;55.50
11762;DHT22;5938;47.098;15.474;2023-07-16T13:25:00;43.10;55.90
11762;DHT22;5938;47.098;15.474;2023-07-16T13:29:06;42.90;57.50
11762;DHT22;5938;47.098;15.474;2023-07-16T13:33:12;41.90;59.60
11762;DHT22;5938;47.098;15.474;2023-07-16T13:37:20;42.20;59.80
11762;DHT22;5938;47.098;15.474;2023-07-16T13:41:25;43.70;57.70
11762;DHT22;5938;47.098;15.474;2023-07-16T13:45:33;43.80;57.10
11762;DHT22;5938;47.098;15.474;2023-07-16T13:49:39;45.40;54.90
11762;DHT22;5938;47.098;15.474;2023-07-16T13:53:47;44.70;53.30
11762;DHT22;5938;47.098;15.474;2023-07-16T13:57:53;45.20;53.40
11762;DHT22;5938;47.098;15.474;2023-07-16T14:02:02;44.80;52.70
11762;DHT22;5938;47.098;15.474;2023-07-16T14:06:08;44.70;54.10
11762;DHT22;5938;47.098;15.474;2023-07-16T14:10:16;46.00;51.30
11762;DHT22;5938;47.098;15.474;2023-07-16T14:14:22;45.40;53.80
11762;DHT22;5938;47.098;15.474;2023-07-16T14:18:28;43.90;55.90
11762;DHT22;5938;47.098;15.474;2023-07-16T14:22:34;42.30;57.10
11762;DHT22;5938;47.098;15.474;2023-07-16T14:26:41;43.40;58.20
11762;DHT22;5938;47.098;15.474;2023-07-16T14:30:47;45.20;56.20
11762;DHT22;5938;47.098;15.474;2023-07-16T14:34:53;44.50;54.80
11762;DHT22;5938;47.098;15.474;2023-07-16T14:38:59;44.80;57.60
11762;DHT22;5938;47.098;15.474;2023-07-16T14:43:07;43.00;55.70
11762;DHT22;5938;47.098;15.474;2023-07-16T14:47:13;39.40;64.80
11762;DHT22;5938;47.098;15.474;2023-07-16T14:51:20;38.70;67.30
11762;DHT22;5938;47.098;15.474;2023-07-16T14:55:26;41.60;64.10
11762;DHT22;5938;47.098;15.474;2023-07-16T14:59:34;43.70;59.60
11762;DHT22;5938;47.098;15.474;2023-07-16T15:03:40;43.50;60.30
11762;DHT22;5938;47.098;15.474;2023-07-16T15:07:46;43.80;59.50
11762;DHT22;5938;47.098;15.474;2023-07-16T15:11:53;43.30;58.90
11762;DHT22;5938;47.098;15.474;2023-07-16T15:16:02;42.70;60.20
11762;DHT22;5938;47.098;15.474;2023-07-16T15:20:09;42.20;59.80
11762;DHT22;5938;47.098;15.474;2023-07-16T15:24:15;40.50;64.50
11762;DHT22;5938;47.098;15.474;2023-07-16T15:28:21;40.70;62.70
11762;DHT22;5938;47.098;15.474;2023-07-16T15:32:29;41.30;61.20
11762;DHT22;5938;47.098;15.474;2023-07-16T15:36:37;42.20;59.80
11762;DHT22;5938;47.098;15.474;2023-07-16T15:45:00;39.40;63.60
11762;DHT22;5938;47.098;15.474;2023-07-16T15:49:07;38.90;66.90
11762;DHT22;5938;47.098;15.474;2023-07-16T15:53:14;37.50;68.90
11762;DHT22;5938;47.098;15.474;2023-07-16T15:57:20;38.10;70.20
11762;DHT22;5938;47.098;15.474;2023-07-16T16:01:30;39.30;67.70
11762;DHT22;5938;47.098;15.474;2023-07-16T16:05:40;40.00;65.20
11762;DHT22;5938;47.098;15.474;2023-07-16T16:09:46;39.10;66.10
11762;DHT22;5938;47.098;15.474;2023-07-16T16:13:52;38.40;66.50
11762;DHT22;5938;47.098;15.474;2023-07-16T16:17:59;38.30;68.60
11762;DHT22;5938;47.098;15.474;2023-07-16T16:22:09;37.80;68.30
11762;DHT22;5938;47.098;15.474;2023-07-16T16:26:15;36.40;72.90
11762;DHT22;5938;47.098;15.474;2023-07-16T16:30:21;34.70;75.80
11762;DHT22;5938;47.098;15.474;2023-07-16T16:34:28;33.50;81.90
11762;DHT22;5938;47.098;15.474;2023-07-16T16:38:38;32.60;85.20
11762;DHT22;5938;47.098;15.474;2023-07-16T16:42:50;32.00;85.40
11762;DHT22;5938;47.098;15.474;2023-07-16T16:46:56;31.80;88.90
11762;DHT22;5938;47.098;15.474;2023-07-16T16:51:03;31.40;86.80
11762;DHT22;5938;47.098;15.474;2023-07-16T16:55:13;30.90;90.70
11762;DHT22;5938;47.098;15.474;2023-07-16T16:59:22;30.60;90.60
11762;DHT22;5938;47.098;15.474;2023-07-16T17:03:32;30.60;91.70
11762;DHT22;5938;47.098;15.474;2023-07-16T17:07:42;30.80;91.10
11762;DHT22;5938;47.098;15.474;2023-07-16T17:11:55;32.20;89.80
11762;DHT22;5938;47.098;15.474;2023-07-16T17:16:02;32.60;89.30
11762;DHT22;5938;47.098;15.474;2023-07-16T17:20:08;32.10;88.80
11762;DHT22;5938;47.098;15.474;2023-07-16T17:24:14;31.40;90.40
11762;DHT22;5938;47.098;15.474;2023-07-16T17:28:19;30.70;92.90
11762;DHT22;5938;47.098;15.474;2023-07-16T17:32:23;29.90;94.60
11762;DHT22;5938;47.098;15.474;2023-07-16T17:36:29;29.20;95.80
11762;DHT22;5938;47.098;15.474;2023-07-16T17:40:33;28.60;96.80
11762;DHT22;5938;47.098;15.474;2023-07-16T17:44:38;28.10;98.50
11762;DHT22;5938;47.098;15.474;2023-07-16T17:48:51;27.70;99.50
11762;DHT22;5938;47.098;15.474;2023-07-16T17:52:58;27.30;99.90
11762;DHT22;5938;47.098;15.474;2023-07-16T17:57:12;27.00;99.90
11762;DHT22;5938;47.098;15.474;2023-07-16T18:01:31;26.70;99.90
11762;DHT22;5938;47.098;15.474;2023-07-16T18:05:39;26.50;99.90
11762;DHT22;5938;47.098;15.474;2023-07-16T18:09:44;26.30;99.90
11762;DHT22;5938;47.098;15.474;2023-07-16T18:13:56;26.10;99.90
11762;DHT22;5938;47.098;15.474;2023-07-16T18:18:14;26.00;99.90
11762;DHT22;5938;47.098;15.474;2023-07-16T18:22:27;25.80;99.90
11762;DHT22;5938;47.098;15.474;2023-07-16T18:26:48;25.60;99.90
11762;DHT22;5938;47.098;15.474;2023-07-16T18:30:56;25.50;99.90
11762;DHT22;5938;47.098;15.474;2023-07-16T18:35:09;25.50;99.90
11762;DHT22;5938;47.098;15.474;2023-07-16T18:39:37;25.30;99.90
11762;DHT22;5938;47.098;15.474;2023-07-16T18:43:47;25.10;99.90
11762;DHT22;5938;47.098;15.474;2023-07-16T18:48:19;25.00;99.90
11762;DHT22;5938;47.098;15.474;2023-07-16T18:52:56;24.90;99.90
11762;DHT22;5938;47.098;15.474;2023-07-16T18:57:20;24.70;99.90
11762;DHT22;5938;47.098;15.474;2023-07-16T19:01:28;24.50;99.90
11762;DHT22;5938;47.098;15.474;2023-07-16T19:05:41;24.50;99.90
11762;DHT22;5938;47.098;15.474;2023-07-16T19:09:51;24.30;99.90
11762;DHT22;5938;47.098;15.474;2023-07-16T19:14:06;24.20;99.90
11762;DHT22;5938;47.098;15.474;2023-07-16T19:18:19;24.10;99.90
11762;DHT22;5938;47.098;15.474;2023-07-16T19:22:25;24.00;99.90
11762;DHT22;5938;47.098;15.474;2023-07-16T19:26:34;23.90;99.90
11762;DHT22;5938;47.098;15.474;2023-07-16T19:30:39;23.80;99.90
11762;DHT22;5938;47.098;15.474;2023-07-16T19:34:45;23.60;99.90
11762;DHT22;5938;47.098;15.474;2023-07-16T19:38:51;23.60;99.90
11762;DHT22;5938;47.098;15.474;2023-07-16T19:42:59;23.50;99.90
11762;DHT22;5938;47.098;15.474;2023-07-16T19:47:07;23.40;99.90
11762;DHT22;5938;47.098;15.474;2023-07-16T19:51:13;23.30;99.90
11762;DHT22;5938;47.098;15.474;2023-07-16T19:55:21;23.20;99.90
11762;DHT22;5938;47.098;15.474;2023-07-16T19:59:29;23.10;99.90
11762;DHT22;5938;47.098;15.474;2023-07-16T20:03:36;23.10;99.90
11762;DHT22;5938;47.098;15.474;2023-07-16T20:07:46;23.00;99.90
11762;DHT22;5938;47.098;15.474;2023-07-16T20:11:55;22.90;99.90
11762;DHT22;5938;47.098;15.474;2023-07-16T20:16:03;22.90;99.90
11762;DHT22;5938;47.098;15.474;2023-07-16T20:20:10;22.80;99.90
11762;DHT22;5938;47.098;15.474;2023-07-16T20:24:18;22.70;99.90
11762;DHT22;5938;47.098;15.474;2023-07-16T20:28:26;22.70;99.90
11762;DHT22;5938;47.098;15.474;2023-07-16T20:32:34;22.60;99.90
11762;DHT22;5938;47.098;15.474;2023-07-16T20:36:45;22.50;99.90
11762;DHT22;5938;47.098;15.474;2023-07-16T20:40:51;22.50;99.90
11762;DHT22;5938;47.098;15.474;2023-07-16T20:45:14;22.50;99.90
11762;DHT22;5938;47.098;15.474;2023-07-16T20:49:23;22.40;99.90
11762;DHT22;5938;47.098;15.474;2023-07-16T20:53:29;22.30;99.90
11762;DHT22;5938;47.098;15.474;2023-07-16T20:57:38;22.20;99.90
11762;DHT22;5938;47.098;15.474;2023-07-16T21:01:43;22.20;99.90
11762;DHT22;5938;47.098;15.474;2023-07-16T21:05:48;22.10;99.90
11762;DHT22;5938;47.098;15.474;2023-07-16T21:09:52;22.10;99.90
11762;DHT22;5938;47.098;15.474;2023-07-16T21:13:55;22.00;99.90
11762;DHT22;5938;47.098;15.474;2023-07-16T21:17:59;21.90;99.90
11762;DHT22;5938;47.098;15.474;2023-07-16T21:22:04;21.90;99.90
11762;DHT22;5938;47.098;15.474;2023-07-16T21:26:09;21.80;99.90
11762;DHT22;5938;47.098;15.474;2023-07-16T21:30:12;21.80;99.90
11762;DHT22;5938;47.098;15.474;2023-07-16T21:34:15;21.70;99.90
11762;DHT22;5938;47.098;15.474;2023-07-16T21:38:20;21.70;99.90
11762;DHT22;5938;47.098;15.474;2023-07-16T21:42:23;21.60;99.90
11762;DHT22;5938;47.098;15.474;2023-07-16T21:46:27;21.60;99.90
11762;DHT22;5938;47.098;15.474;2023-07-16T21:50:30;21.50;99.90
11762;DHT22;5938;47.098;15.474;2023-07-16T21:54:35;21.50;99.90
11762;DHT22;5938;47.098;15.474;2023-07-16T21:58:38;21.40;99.90
11762;DHT22;5938;47.098;15.474;2023-07-16T22:02:42;21.40;99.90
11762;DHT22;5938;47.098;15.474;2023-07-16T22:06:45;21.30;99.90
11762;DHT22;5938;47.098;15.474;2023-07-16T22:10:51;21.30;99.90
11762;DHT22;5938;47.098;15.474;2023-07-16T22:14:54;21.20;99.90
11762;DHT22;5938;47.098;15.474;2023-07-16T22:18:58;21.20;99.90
11762;DHT22;5938;47.098;15.474;2023-07-16T22:23:02;21.10;99.90
11762;DHT22;5938;47.098;15.474;2023-07-16T22:27:07;21.10;99.90
11762;DHT22;5938;47.098;15.474;2023-07-16T22:31:10;21.00;99.90
11762;DHT22;5938;47.098;15.474;2023-07-16T22:35:13;21.00;99.90
11762;DHT22;5938;47.098;15.474;2023-07-16T22:39:16;20.90;99.90
11762;DHT22;5938;47.098;15.474;2023-07-16T22:43:21;20.90;99.90
11762;DHT22;5938;47.098;15.474;2023-07-16T22:47:25;20.90;99.90
11762;DHT22;5938;47.098;15.474;2023-07-16T22:51:28;20.80;99.90
11762;DHT22;5938;47.098;15.474;2023-07-16T22:55:31;20.80;99.90
11762;DHT22;5938;47.098;15.474;2023-07-16T22:59:37;20.70;99.90
11762;DHT22;5938;47.098;15.474;2023-07-16T23:03:40;20.70;99.90
11762;DHT22;5938;47.098;15.474;2023-07-16T23:07:44;20.70;99.90
11762;DHT22;5938;47.098;15.474;2023-07-16T23:11:48;20.60;99.90
11762;DHT22;5938;47.098;15.474;2023-07-16T23:15:52;20.50;99.90
11762;DHT22;5938;47.098;15.474;2023-07-16T23:19:56;20.50;99.90
11762;DHT22;5938;47.098;15.474;2023-07-16T23:24:00;20.40;99.90
11762;DHT22;5938;47.098;15.474;2023-07-16T23:28:04;20.40;99.90
11762;DHT22;5938;47.098;15.474;2023-07-16T23:32:09;20.40;99.90
11762;DHT22;5938;47.098;15.474;2023-07-16T23:36:13;20.30;99.90
11762;DHT22;5938;47.098;15.474;2023-07-16T23:40:18;20.30;99.90
11762;DHT22;5938;47.098;15.474;2023-07-16T23:44:23;20.30;99.90
11762;DHT22;5938;47.098;15.474;2023-07-16T23:48:27;20.20;99.90
11762;DHT22;5938;47.098;15.474;2023-07-16T23:52:31;20.20;99.90
11762;DHT22;5938;47.098;15.474;2023-07-16T23:56:34;20.10;99.90
